Terminal Aerodrome Forecast
Issued by NWS

Home | Current Version | Previous Version | Text Only | Print | Product List | Glossary On
Versions: 1 2 3 4 5 6 7 8 9 10 11 12 13 14 15 16 17 18 19 20 21 22
000
FTUS41 KRLX 040558
TAFCKB
TAF
KCKB 040558Z 0406/0506 00000KT P6SM VCTS BKN040CB
     FM040800 00000KT 6SM BR HZ BKN025
     FM041000 00000KT 4SM BR HZ BKN015
     FM041200 00000KT 2SM BR BKN015
     FM041300 00000KT 3SM BR HZ BKN015
     FM041400 VRB03KT 6SM HZ BKN025
     FM041500 VRB03KT P6SM BKN025
     FM041600 27004KT P6SM SCT025=

USA.gov is the U.S. government's official web portal to all federal, state and local government web resources and services.